createdAt,value
2022-09-20T00:00:19.967Z,76.50
2022-09-20T00:01:20.057Z,69.10
2022-09-20T00:02:19.848Z,46.30
2022-09-20T00:03:19.780Z,47.20
2022-09-20T00:04:19.713Z,50.60
2022-09-20T00:05:19.717Z,47.10
2022-09-20T00:06:19.617Z,68.10
2022-09-20T00:07:19.532Z,46.40
2022-09-20T00:08:19.464Z,46.50
2022-09-20T00:09:19.428Z,51.10
2022-09-20T00:10:19.317Z,50.00
2022-09-20T00:11:20.039Z,51.00
2022-09-20T00:12:19.192Z,51.50
2022-09-20T00:13:19.126Z,45.50
2022-09-20T00:14:19.066Z,42.50
2022-09-20T00:15:19.005Z,50.40
2022-09-20T00:16:18.974Z,63.50
2022-09-20T00:17:18.873Z,42.90
2022-09-20T00:18:18.817Z,53.30
2022-09-20T00:19:18.733Z,58.70
2022-09-20T00:20:18.680Z,42.20
2022-09-20T00:21:18.617Z,43.20
2022-09-20T00:22:18.532Z,46.70
2022-09-20T00:23:19.264Z,45.20
2022-09-20T00:24:18.402Z,66.00
2022-09-20T00:25:18.335Z,54.10
2022-09-20T00:26:18.274Z,45.30
2022-09-20T00:27:18.223Z,51.50
2022-09-20T00:28:18.157Z,43.00
2022-09-20T00:29:18.085Z,43.50
2022-09-20T00:30:18.027Z,58.80
2022-09-20T00:31:18.052Z,34.70
2022-09-20T00:32:17.877Z,58.90
2022-09-20T00:33:17.830Z,49.10
2022-09-20T00:34:17.746Z,46.80
2022-09-20T00:35:18.487Z,50.10
2022-09-20T00:36:17.629Z,32.80
2022-09-20T00:37:17.563Z,31.70
2022-09-20T00:38:17.502Z,48.80
2022-09-20T00:39:17.426Z,40.90
2022-09-20T00:40:17.438Z,47.10
2022-09-20T00:41:17.312Z,53.10
2022-09-20T00:42:17.235Z,33.20
2022-09-20T00:43:17.177Z,45.80
2022-09-20T00:44:17.113Z,49.10
2022-09-20T00:45:17.052Z,48.60
2022-09-20T00:46:17.024Z,35.80
2022-09-20T00:47:16.931Z,53.90
2022-09-20T00:48:16.838Z,36.10
2022-09-20T00:49:16.783Z,39.80
2022-09-20T00:50:16.700Z,38.70
2022-09-20T00:51:16.656Z,47.60
2022-09-20T00:52:16.588Z,53.60
2022-09-20T00:53:17.282Z,40.80
2022-09-20T00:54:20.139Z,30.90
2022-09-20T00:55:16.388Z,39.60
2022-09-20T00:56:16.322Z,50.50
2022-09-20T00:57:16.247Z,45.20
2022-09-20T00:58:16.182Z,44.20
2022-09-20T00:59:16.918Z,34.40
2022-09-20T01:00:16.049Z,37.20
2022-09-20T01:01:16.051Z,40.70
2022-09-20T01:02:15.988Z,42.10
2022-09-20T01:03:15.851Z,37.30
2022-09-20T01:04:15.788Z,32.20
2022-09-20T01:05:16.770Z,31.80
2022-09-20T01:06:15.684Z,27.70
2022-09-20T01:07:15.609Z,36.70
2022-09-20T01:08:15.539Z,37.10
2022-09-20T01:09:15.465Z,44.10
2022-09-20T01:10:15.401Z,51.10
2022-09-20T01:11:16.870Z,41.40
2022-09-20T01:12:15.281Z,37.30
2022-09-20T01:13:15.239Z,33.50
2022-09-20T01:14:15.132Z,41.30
2022-09-20T01:15:15.076Z,38.30
2022-09-20T01:16:15.035Z,53.00
2022-09-20T01:17:15.734Z,46.00
2022-09-20T01:18:14.876Z,37.30
2022-09-20T01:19:14.806Z,26.20
2022-09-20T01:20:14.721Z,28.20
2022-09-20T01:21:14.674Z,54.50
2022-09-20T01:22:14.608Z,54.80
2022-09-20T01:23:14.571Z,41.70
2022-09-20T01:24:14.493Z,30.60
2022-09-20T01:25:14.421Z,50.90
2022-09-20T01:26:14.361Z,48.10
2022-09-20T01:27:14.293Z,38.90
2022-09-20T01:28:14.230Z,40.30
2022-09-20T01:29:14.181Z,36.90
2022-09-20T01:30:14.090Z,41.00
2022-09-20T01:31:14.095Z,59.40
2022-09-20T01:32:13.968Z,45.70
2022-09-20T01:33:13.908Z,47.90
2022-09-20T01:34:13.824Z,43.30
2022-09-20T01:35:14.986Z,48.00
2022-09-20T01:36:13.708Z,48.60
2022-09-20T01:37:13.632Z,42.10
2022-09-20T01:38:13.580Z,51.20
2022-09-20T01:39:13.515Z,33.80
2022-09-20T01:40:13.518Z,47.70
2022-09-20T01:41:14.160Z,48.90
2022-09-20T01:42:13.305Z,39.50
2022-09-20T01:43:13.240Z,34.00
2022-09-20T01:44:13.187Z,61.40
2022-09-20T01:45:13.127Z,34.10
2022-09-20T01:46:13.086Z,42.80
2022-09-20T01:47:12.993Z,33.70
2022-09-20T01:48:12.922Z,47.00
2022-09-20T01:49:12.860Z,45.50
2022-09-20T01:50:12.783Z,43.50
2022-09-20T01:51:12.732Z,31.90
2022-09-20T01:52:12.663Z,33.30
2022-09-20T01:53:12.606Z,40.00
2022-09-20T01:54:12.519Z,36.40
2022-09-20T01:55:12.454Z,44.20
2022-09-20T01:56:12.415Z,49.00
2022-09-20T01:57:12.337Z,33.70
2022-09-20T01:58:12.258Z,29.10
2022-09-20T01:59:23.666Z,41.40
2022-09-20T02:00:12.135Z,44.60
2022-09-20T02:01:12.143Z,32.50
2022-09-20T02:02:12.054Z,35.90
2022-09-20T02:03:11.927Z,49.80
2022-09-20T02:04:11.878Z,46.40
2022-09-20T02:05:11.831Z,48.30
2022-09-20T02:06:11.748Z,37.80
2022-09-20T02:07:11.681Z,49.10
2022-09-20T02:08:11.619Z,34.30
2022-09-20T02:09:11.536Z,44.50
2022-09-20T02:10:11.476Z,44.80
2022-09-20T02:11:13.306Z,40.10
2022-09-20T02:12:11.372Z,46.00
2022-09-20T02:13:11.291Z,31.10
2022-09-20T02:14:11.224Z,39.70
2022-09-20T02:15:11.183Z,40.50
2022-09-20T02:16:11.141Z,47.90
2022-09-20T02:17:11.811Z,29.40
2022-09-20T02:18:10.974Z,51.40
2022-09-20T02:19:10.900Z,30.60
2022-09-20T02:20:10.821Z,39.40
2022-09-20T02:21:10.794Z,46.90
2022-09-20T02:22:10.688Z,44.00
2022-09-20T02:23:10.715Z,39.60
2022-09-20T02:24:10.555Z,27.20
2022-09-20T02:25:10.510Z,57.00
2022-09-20T02:26:10.461Z,38.60
2022-09-20T02:27:10.377Z,42.20
2022-09-20T02:28:10.311Z,31.40
2022-09-20T02:29:11.437Z,30.90
2022-09-20T02:30:10.177Z,49.40
2022-09-20T02:31:10.203Z,29.80
2022-09-20T02:32:10.044Z,38.30
2022-09-20T02:33:09.988Z,49.80
2022-09-20T02:34:09.927Z,43.20
2022-09-20T02:35:09.849Z,38.90
2022-09-20T02:36:09.786Z,35.80
2022-09-20T02:37:09.705Z,39.30
2022-09-20T02:38:09.655Z,33.80
2022-09-20T02:39:09.591Z,40.40
2022-09-20T02:40:09.590Z,35.80
2022-09-20T02:41:10.253Z,34.90
2022-09-20T02:42:09.398Z,31.80
2022-09-20T02:43:09.333Z,34.70
2022-09-20T02:44:09.248Z,27.60
2022-09-20T02:45:09.188Z,42.20
2022-09-20T02:46:09.197Z,35.30
2022-09-20T02:47:09.102Z,37.10
2022-09-20T02:48:09.004Z,46.00
2022-09-20T02:49:08.922Z,36.50
2022-09-20T02:50:08.857Z,36.60
2022-09-20T02:51:08.792Z,43.90
2022-09-20T02:52:08.741Z,36.00
2022-09-20T02:53:08.706Z,28.20
2022-09-20T02:54:08.612Z,30.60
2022-09-20T02:55:08.538Z,41.30
2022-09-20T02:56:08.468Z,28.60
2022-09-20T02:57:08.414Z,39.60
2022-09-20T02:58:08.349Z,52.90
2022-09-20T02:59:09.827Z,38.10
2022-09-20T03:00:08.220Z,27.10
2022-09-20T03:01:08.209Z,31.50
2022-09-20T03:02:08.109Z,36.00
2022-09-20T03:03:08.009Z,48.80
2022-09-20T03:04:07.938Z,43.90
2022-09-20T03:05:09.100Z,35.10
2022-09-20T03:06:07.813Z,38.50
2022-09-20T03:07:07.755Z,43.10
2022-09-20T03:08:07.681Z,32.80
2022-09-20T03:09:07.612Z,34.10
2022-09-20T03:10:07.557Z,42.80
2022-09-20T03:11:07.502Z,35.30
2022-09-20T03:12:07.433Z,32.10
2022-09-20T03:13:07.367Z,23.80
2022-09-20T03:14:07.379Z,23.60
2022-09-20T03:15:07.237Z,35.90
2022-09-20T03:16:07.236Z,20.30
2022-09-20T03:17:09.229Z,28.20
2022-09-20T03:18:07.041Z,27.40
2022-09-20T03:19:06.982Z,25.00
2022-09-20T03:20:06.893Z,27.10
2022-09-20T03:21:06.831Z,24.40
2022-09-20T03:22:06.766Z,26.00
2022-09-20T03:23:08.261Z,30.10
2022-09-20T03:24:06.630Z,25.10
2022-09-20T03:25:06.591Z,31.60
2022-09-20T03:26:06.533Z,22.00
2022-09-20T03:27:06.449Z,36.50
2022-09-20T03:28:06.369Z,30.70
2022-09-20T03:29:06.468Z,19.40
2022-09-20T03:30:06.256Z,24.40
2022-09-20T03:31:06.188Z,30.70
2022-09-20T03:32:06.199Z,29.40
2022-09-20T03:33:06.168Z,20.20
2022-09-20T03:34:06.088Z,33.50
2022-09-20T03:35:05.934Z,19.20
2022-09-20T03:36:05.849Z,35.00
2022-09-20T03:37:05.793Z,29.70
2022-09-20T03:38:05.722Z,32.60
2022-09-20T03:39:05.648Z,30.10
2022-09-20T03:40:05.643Z,25.00
2022-09-20T03:41:05.553Z,38.00
2022-09-20T03:42:05.472Z,28.40
2022-09-20T03:43:05.406Z,30.10
2022-09-20T03:44:05.494Z,44.40
2022-09-20T03:45:05.310Z,45.20
2022-09-20T03:46:05.249Z,35.50
2022-09-20T03:47:06.665Z,33.80
2022-09-20T03:48:05.085Z,29.50
2022-09-20T03:49:05.000Z,32.60
2022-09-20T03:50:04.929Z,30.20
2022-09-20T03:51:04.919Z,33.30
2022-09-20T03:52:04.803Z,27.80
2022-09-20T03:53:05.507Z,28.00
2022-09-20T03:54:04.683Z,35.30
2022-09-20T03:55:04.602Z,43.90
2022-09-20T03:56:04.564Z,29.50
2022-09-20T03:57:04.478Z,34.70
2022-09-20T03:58:08.596Z,30.90
2022-09-20T03:59:05.221Z,35.60
2022-09-20T04:00:04.289Z,43.20
2022-09-20T04:01:04.304Z,38.00
2022-09-20T04:02:04.320Z,41.90
2022-09-20T04:03:04.036Z,36.00
2022-09-20T04:04:04.025Z,30.80
2022-09-20T04:05:04.747Z,36.20
2022-09-20T04:06:03.899Z,42.60
2022-09-20T04:07:03.820Z,34.20
2022-09-20T04:08:03.785Z,32.70
2022-09-20T04:09:03.695Z,42.20
2022-09-20T04:10:03.642Z,34.90
2022-09-20T04:11:04.379Z,30.80
2022-09-20T04:12:03.494Z,46.40
2022-09-20T04:13:03.434Z,47.40
2022-09-20T04:14:05.907Z,67.20
2022-09-20T04:15:03.315Z,39.20
2022-09-20T04:16:03.232Z,34.20
2022-09-20T04:17:03.280Z,40.50
2022-09-20T04:18:03.112Z,37.90
2022-09-20T04:19:03.032Z,47.30
2022-09-20T04:20:02.949Z,66.10
2022-09-20T04:21:02.846Z,59.60
2022-09-20T04:22:02.803Z,45.70
2022-09-20T04:23:03.058Z,42.90
2022-09-20T04:24:02.697Z,42.30
2022-09-20T04:25:02.591Z,46.70
2022-09-20T04:26:02.611Z,56.70
2022-09-20T04:27:02.532Z,47.40
2022-09-20T04:28:02.462Z,36.40
2022-09-20T04:29:03.910Z,38.00
2022-09-20T04:30:02.327Z,39.20
2022-09-20T04:31:02.250Z,54.30
2022-09-20T04:32:02.234Z,54.50
2022-09-20T04:33:02.136Z,41.70
2022-09-20T04:34:02.049Z,48.60
2022-09-20T04:35:02.810Z,52.50
2022-09-20T04:36:01.864Z,32.30
2022-09-20T04:37:01.814Z,43.80
2022-09-20T04:38:01.760Z,54.40
2022-09-20T04:39:01.667Z,42.10
2022-09-20T04:40:01.683Z,50.30
2022-09-20T04:41:01.571Z,34.60
2022-09-20T04:42:01.489Z,49.60
2022-09-20T04:43:01.423Z,45.80
2022-09-20T04:44:01.398Z,45.50
2022-09-20T04:45:01.292Z,41.40
2022-09-20T04:46:01.353Z,33.90
2022-09-20T04:47:02.404Z,35.30
2022-09-20T04:48:01.091Z,28.80
2022-09-20T04:49:01.013Z,30.90
2022-09-20T04:50:00.950Z,43.20
2022-09-20T04:51:00.893Z,51.50
2022-09-20T04:52:00.860Z,47.30
2022-09-20T04:53:00.776Z,35.40
2022-09-20T04:54:00.708Z,32.30
2022-09-20T04:55:00.626Z,31.80
2022-09-20T04:56:00.571Z,33.40
2022-09-20T04:57:00.494Z,46.70
2022-09-20T04:58:00.425Z,37.90
2022-09-20T04:59:00.391Z,23.70
2022-09-20T05:00:00.298Z,31.90
2022-09-20T05:01:00.274Z,46.80
2022-09-20T05:02:00.272Z,30.20
2022-09-20T05:03:00.096Z,25.50
2022-09-20T05:04:00.055Z,24.30
2022-09-20T05:05:01.171Z,29.50
2022-09-20T05:05:59.912Z,40.80
2022-09-20T05:06:59.876Z,47.60
2022-09-20T05:07:59.787Z,30.30
2022-09-20T05:08:59.933Z,23.80
2022-09-20T05:09:59.661Z,36.00
2022-09-20T05:10:59.611Z,40.60
2022-09-20T05:11:59.507Z,41.10
2022-09-20T05:12:59.455Z,41.80
2022-09-20T05:13:59.397Z,50.70
2022-09-20T05:14:59.324Z,21.10
2022-09-20T05:15:59.284Z,37.10
2022-09-20T05:17:00.075Z,38.80
2022-09-20T05:17:59.118Z,37.60
2022-09-20T05:18:59.083Z,42.40
2022-09-20T05:19:59.022Z,44.60
2022-09-20T05:20:58.961Z,54.70
2022-09-20T05:21:58.860Z,41.40
2022-09-20T05:22:58.792Z,33.20
2022-09-20T05:23:58.739Z,33.00
2022-09-20T05:24:58.669Z,39.10
2022-09-20T05:25:58.639Z,45.20
2022-09-20T05:26:58.538Z,45.10
2022-09-20T05:27:58.467Z,25.20
2022-09-20T05:28:58.675Z,51.10
2022-09-20T05:29:58.986Z,42.20
2022-09-20T05:30:58.281Z,38.00
2022-09-20T05:31:59.156Z,40.90
2022-09-20T05:32:58.149Z,40.40
2022-09-20T05:33:58.079Z,35.20
2022-09-20T05:34:58.038Z,46.00
2022-09-20T05:35:58.526Z,38.10
2022-09-20T05:36:57.875Z,52.10
2022-09-20T05:37:57.815Z,41.60
2022-09-20T05:38:59.051Z,36.20
2022-09-20T05:39:57.753Z,47.00
2022-09-20T05:40:58.408Z,33.40
2022-09-20T05:41:57.560Z,36.90
2022-09-20T05:42:57.484Z,46.50
2022-09-20T05:43:57.418Z,47.10
2022-09-20T05:44:57.369Z,47.80
2022-09-20T05:45:57.307Z,45.90
2022-09-20T05:46:58.278Z,33.40
2022-09-20T05:47:57.178Z,52.30
2022-09-20T05:48:57.122Z,46.10
2022-09-20T05:49:57.039Z,39.00
2022-09-20T05:50:57.835Z,50.60
2022-09-20T05:51:56.916Z,34.10
2022-09-20T05:52:59.122Z,38.00
2022-09-20T05:53:56.770Z,54.90
2022-09-20T05:54:56.694Z,50.00
2022-09-20T05:55:56.631Z,57.40
2022-09-20T05:56:56.610Z,69.00
2022-09-20T05:57:56.562Z,28.50
2022-09-20T05:58:57.249Z,31.00
2022-09-20T05:59:56.370Z,45.40
2022-09-20T06:00:56.340Z,38.30
2022-09-20T06:01:56.293Z,42.80
2022-09-20T06:02:56.192Z,37.30
2022-09-20T06:03:56.174Z,44.30
2022-09-20T06:04:56.050Z,39.30
2022-09-20T06:05:55.985Z,43.20
2022-09-20T06:06:55.920Z,55.70
2022-09-20T06:07:55.856Z,53.10
2022-09-20T06:08:55.793Z,46.50
2022-09-20T06:09:55.711Z,42.70
2022-09-20T06:10:56.448Z,39.90
2022-09-20T06:11:55.598Z,59.50
2022-09-20T06:12:55.532Z,41.70
2022-09-20T06:13:55.468Z,47.00
2022-09-20T06:14:55.400Z,55.10
2022-09-20T06:15:55.324Z,51.70
2022-09-20T06:16:56.048Z,42.10
2022-09-20T06:17:55.190Z,45.60
2022-09-20T06:18:55.126Z,33.60
2022-09-20T06:19:55.075Z,40.40
2022-09-20T06:20:54.999Z,36.00
2022-09-20T06:21:54.933Z,44.90
2022-09-20T06:22:56.398Z,42.30
2022-09-20T06:23:54.838Z,61.10
2022-09-20T06:24:54.762Z,46.50
2022-09-20T06:25:54.711Z,42.60
2022-09-20T06:26:54.615Z,58.80
2022-09-20T06:27:54.548Z,33.00
2022-09-20T06:28:58.251Z,60.20
2022-09-20T06:29:54.421Z,57.40
2022-09-20T06:30:54.393Z,41.80
2022-09-20T06:31:54.284Z,44.70
2022-09-20T06:32:54.227Z,52.10
2022-09-20T06:33:54.145Z,61.60
2022-09-20T06:34:58.104Z,43.10
2022-09-20T06:35:58.703Z,50.50
2022-09-20T06:36:53.953Z,50.40
2022-09-20T06:37:53.904Z,48.20
2022-09-20T06:38:53.815Z,35.70
2022-09-20T06:39:53.749Z,44.70
2022-09-20T06:40:53.706Z,30.90
2022-09-20T06:41:53.620Z,48.40
2022-09-20T06:42:53.569Z,51.70
2022-09-20T06:43:53.491Z,38.30
2022-09-20T06:44:53.447Z,53.30
2022-09-20T06:45:53.432Z,47.40
2022-09-20T06:46:53.324Z,35.50
2022-09-20T06:47:53.226Z,44.20
2022-09-20T06:48:53.187Z,44.80
2022-09-20T06:49:54.020Z,45.60
2022-09-20T06:50:53.027Z,31.80
2022-09-20T06:51:52.997Z,50.10
2022-09-20T06:52:54.452Z,42.90
2022-09-20T06:53:52.914Z,37.80
2022-09-20T06:54:52.783Z,39.10
2022-09-20T06:55:52.729Z,38.40
2022-09-20T06:56:52.656Z,37.30
2022-09-20T06:57:52.582Z,47.40
2022-09-20T06:58:53.315Z,32.00
2022-09-20T06:59:52.448Z,46.20
2022-09-20T07:00:52.435Z,50.30
2022-09-20T07:01:52.376Z,43.80
2022-09-20T07:02:52.245Z,49.80
2022-09-20T07:03:52.192Z,46.50
2022-09-20T07:04:52.144Z,38.60
2022-09-20T07:05:52.071Z,36.00
2022-09-20T07:06:51.982Z,42.40
2022-09-20T07:07:51.932Z,36.70
2022-09-20T07:08:51.868Z,40.10
2022-09-20T07:09:51.825Z,56.50
2022-09-20T07:10:52.515Z,36.30
2022-09-20T07:11:51.678Z,47.40
2022-09-20T07:12:51.628Z,40.80
2022-09-20T07:13:51.553Z,49.30
2022-09-20T07:14:51.487Z,40.50
2022-09-20T07:15:51.416Z,44.20
2022-09-20T07:16:51.419Z,45.80
2022-09-20T07:17:51.280Z,45.60
2022-09-20T07:18:51.210Z,39.90
2022-09-20T07:19:51.177Z,46.20
2022-09-20T07:20:51.073Z,27.80
2022-09-20T07:21:51.007Z,40.40
2022-09-20T07:22:51.011Z,38.60
2022-09-20T07:23:50.885Z,33.40
2022-09-20T07:24:50.805Z,32.90
2022-09-20T07:25:50.783Z,37.70
2022-09-20T07:26:50.684Z,36.60
2022-09-20T07:27:50.640Z,41.50
2022-09-20T07:28:51.336Z,48.70
2022-09-20T07:29:50.505Z,42.40
2022-09-20T07:30:50.455Z,40.10
2022-09-20T07:31:50.399Z,38.80
2022-09-20T07:32:50.296Z,35.30
2022-09-20T07:33:50.222Z,36.80
2022-09-20T07:34:51.701Z,37.40
2022-09-20T07:35:50.122Z,30.10
2022-09-20T07:36:50.045Z,29.80
2022-09-20T07:37:49.975Z,38.50
2022-09-20T07:38:49.891Z,40.30
2022-09-20T07:39:49.862Z,34.10
2022-09-20T07:40:50.861Z,27.20
2022-09-20T07:41:49.781Z,24.40
2022-09-20T07:42:53.043Z,34.90
2022-09-20T07:43:49.613Z,35.40
2022-09-20T07:44:49.518Z,35.70
2022-09-20T07:45:49.559Z,31.60
2022-09-20T07:46:49.402Z,21.60
2022-09-20T07:47:49.310Z,34.50
2022-09-20T07:48:49.258Z,31.80
2022-09-20T07:49:49.193Z,31.50
2022-09-20T07:50:49.394Z,33.40
2022-09-20T07:51:49.062Z,25.40
2022-09-20T07:52:49.011Z,29.50
2022-09-20T07:53:48.923Z,26.10
2022-09-20T07:54:48.846Z,43.00
2022-09-20T07:55:48.797Z,29.10
2022-09-20T07:56:48.730Z,31.20
2022-09-20T07:57:48.669Z,21.40
2022-09-20T07:58:52.406Z,24.30
2022-09-20T07:59:48.537Z,20.90
2022-09-20T08:00:48.518Z,36.80
2022-09-20T08:01:48.413Z,21.60
2022-09-20T08:02:48.342Z,34.90
2022-09-20T08:03:48.279Z,31.30
2022-09-20T08:04:48.211Z,43.00
2022-09-20T08:05:48.137Z,36.10
2022-09-20T08:06:48.081Z,41.00
2022-09-20T08:07:48.021Z,33.10
2022-09-20T08:08:47.933Z,32.10
2022-09-20T08:09:47.868Z,27.40
2022-09-20T08:10:49.031Z,28.90
2022-09-20T08:11:47.781Z,38.60
2022-09-20T08:14:47.564Z,19.30
2022-09-20T08:15:47.485Z,36.10
2022-09-20T08:16:47.661Z,34.40
2022-09-20T08:17:47.358Z,25.00
2022-09-20T08:18:47.313Z,24.40
2022-09-20T08:19:47.231Z,20.70
2022-09-20T08:20:47.178Z,32.50
2022-09-20T08:21:47.091Z,32.70
2022-09-20T08:23:00.853Z,31.00
2022-09-20T08:23:47.078Z,25.90
2022-09-20T08:24:46.888Z,27.80
2022-09-20T08:25:46.838Z,28.00
2022-09-20T08:26:46.793Z,25.20
2022-09-20T08:27:46.734Z,28.90
2022-09-20T08:28:46.684Z,23.70
2022-09-20T08:29:46.582Z,18.70
2022-09-20T08:30:46.511Z,31.40
2022-09-20T08:31:46.539Z,29.40
2022-09-20T08:32:46.367Z,18.10
2022-09-20T08:33:46.324Z,36.10
2022-09-20T08:34:49.387Z,22.90
2022-09-20T08:35:46.186Z,28.40
2022-09-20T08:36:46.132Z,28.10
2022-09-20T08:37:46.074Z,41.60
2022-09-20T08:40:03.722Z,31.40
2022-09-20T08:40:46.785Z,29.90
2022-09-20T08:41:45.780Z,33.30
2022-09-20T08:42:45.732Z,27.80
2022-09-20T08:43:45.908Z,25.60
2022-09-20T08:44:45.773Z,32.70
2022-09-20T08:45:46.466Z,35.90
2022-09-20T08:46:46.964Z,22.80
2022-09-20T08:47:45.393Z,21.50
2022-09-20T08:48:45.328Z,19.60
2022-09-20T08:49:46.579Z,29.20
2022-09-20T08:50:45.210Z,39.20
2022-09-20T08:51:48.681Z,23.20
2022-09-20T08:52:45.090Z,18.50
2022-09-20T08:53:49.066Z,25.70
2022-09-20T08:54:44.929Z,30.00
2022-09-20T08:55:44.890Z,21.60
2022-09-20T08:56:44.834Z,29.70
2022-09-20T08:57:44.736Z,23.60
2022-09-20T08:58:44.688Z,26.20
2022-09-20T08:59:44.619Z,20.30
2022-09-20T09:00:44.578Z,23.50
2022-09-20T09:01:44.492Z,14.60
2022-09-20T09:02:44.427Z,24.50
2022-09-20T09:03:44.348Z,31.40
2022-09-20T09:04:45.857Z,20.70
2022-09-20T09:05:44.252Z,24.70
2022-09-20T09:06:50.187Z,22.40
2022-09-20T09:07:33.606Z,21.90
2022-09-20T09:08:37.530Z,26.20
2022-09-20T09:09:37.732Z,19.40
2022-09-20T09:10:34.410Z,23.10
2022-09-20T09:11:34.345Z,20.80
2022-09-20T09:12:34.277Z,20.80
2022-09-20T09:13:34.224Z,23.80
2022-09-20T09:14:34.132Z,22.40
2022-09-20T09:15:34.215Z,17.60
2022-09-20T09:16:36.057Z,11.70
2022-09-20T09:17:33.949Z,17.60
2022-09-20T09:18:33.942Z,8.50
2022-09-20T09:19:34.267Z,22.60
2022-09-20T09:20:33.747Z,17.10
2022-09-20T09:21:33.697Z,8.40
2022-09-20T09:22:34.832Z,13.00
2022-09-20T09:23:33.568Z,18.20
2022-09-20T09:24:33.489Z,21.50
2022-09-20T09:25:33.485Z,17.50
2022-09-20T09:26:33.362Z,12.40
2022-09-20T09:27:33.301Z,11.70
2022-09-20T09:28:33.248Z,12.90
2022-09-20T09:29:35.022Z,19.70
2022-09-20T09:30:33.126Z,15.10
2022-09-20T09:31:33.128Z,12.90
2022-09-20T09:32:33.125Z,18.50
2022-09-20T09:33:32.894Z,19.30
2022-09-20T09:34:32.867Z,13.30
2022-09-20T09:35:32.781Z,23.80
2022-09-20T09:36:32.715Z,17.30
2022-09-20T09:37:32.660Z,14.90
2022-09-20T09:38:32.602Z,13.20
2022-09-20T09:39:32.515Z,22.50
2022-09-20T09:40:32.570Z,21.00
2022-09-20T09:41:32.537Z,14.80
2022-09-20T09:42:32.315Z,10.00
2022-09-20T09:43:32.244Z,15.50
2022-09-20T09:44:32.213Z,11.70
2022-09-20T09:45:32.192Z,18.30
2022-09-20T09:46:32.109Z,20.80
2022-09-20T09:47:31.990Z,13.90
2022-09-20T09:48:31.937Z,14.00
2022-09-20T09:49:31.854Z,16.40
2022-09-20T09:50:31.827Z,9.00
2022-09-20T09:51:31.742Z,15.90
2022-09-20T09:52:32.492Z,14.00
2022-09-20T09:53:31.599Z,12.60
2022-09-20T09:54:31.543Z,10.50
2022-09-20T09:55:31.480Z,14.30
2022-09-20T09:56:31.414Z,5.90
2022-09-20T09:57:31.332Z,10.80
2022-09-20T09:58:32.059Z,10.40
2022-09-20T09:59:31.217Z,10.70
2022-09-20T10:00:31.156Z,18.60
2022-09-20T10:01:33.358Z,7.80
2022-09-20T10:02:31.109Z,9.90
2022-09-20T10:03:30.966Z,11.50
2022-09-20T10:04:31.682Z,11.60
2022-09-20T10:05:30.810Z,6.60
2022-09-20T10:06:30.765Z,9.90
2022-09-20T10:07:30.702Z,8.20
2022-09-20T10:08:30.636Z,6.20
2022-09-20T10:09:30.574Z,5.70
2022-09-20T10:10:30.522Z,4.20
2022-09-20T10:11:30.469Z,7.20
2022-09-20T10:12:30.405Z,3.60
2022-09-20T10:13:30.295Z,5.90
2022-09-20T10:14:30.241Z,8.00
2022-09-20T10:15:30.175Z,3.00
2022-09-20T10:16:30.200Z,2.60
2022-09-20T10:17:30.064Z,3.50
2022-09-20T10:18:29.979Z,4.40
2022-09-20T10:19:29.917Z,5.40
2022-09-20T10:20:29.879Z,4.90
2022-09-20T10:21:29.815Z,5.30
2022-09-20T10:22:29.741Z,2.20
2022-09-20T10:23:51.944Z,6.30
2022-09-20T10:24:30.120Z,11.80
2022-09-20T10:25:29.518Z,9.20
2022-09-20T10:26:30.055Z,9.30
2022-09-20T10:27:29.392Z,7.00
2022-09-20T10:28:29.383Z,9.80
2022-09-20T10:29:29.289Z,11.50
2022-09-20T10:30:29.229Z,11.00
2022-09-20T10:31:29.217Z,28.30
2022-09-20T10:32:29.099Z,61.90
2022-09-20T10:33:29.011Z,57.30
2022-09-20T10:34:28.970Z,65.40
2022-09-20T10:35:28.888Z,50.10
2022-09-20T10:36:28.806Z,65.00
2022-09-20T10:37:28.753Z,42.00
2022-09-20T10:38:28.693Z,31.60
2022-09-20T10:39:28.629Z,21.90
2022-09-20T10:40:28.588Z,5.70
2022-09-20T10:41:28.518Z,5.90
2022-09-20T10:42:28.440Z,9.60
2022-09-20T10:43:28.377Z,5.90
2022-09-20T10:44:28.297Z,7.40
2022-09-20T10:45:53.687Z,4.00
2022-09-20T10:46:32.980Z,11.20
2022-09-20T10:47:28.180Z,5.40
2022-09-20T10:48:28.034Z,25.00
2022-09-20T10:49:27.973Z,50.40
2022-09-20T10:50:27.924Z,105.50
2022-09-20T10:51:27.860Z,116.70
2022-09-20T10:52:27.773Z,142.40
2022-09-20T10:53:27.702Z,137.40
2022-09-20T10:54:27.657Z,150.80
2022-09-20T10:55:27.580Z,123.00
2022-09-20T10:56:27.921Z,59.00
2022-09-20T10:57:27.488Z,39.90
2022-09-20T10:58:27.695Z,24.20
2022-09-20T10:59:27.337Z,12.00
2022-09-20T11:00:27.343Z,7.70
2022-09-20T11:01:29.237Z,9.20
2022-09-20T11:02:27.174Z,3.50
2022-09-20T11:03:27.078Z,9.10
2022-09-20T11:04:28.538Z,20.30
2022-09-20T11:05:26.953Z,132.20
2022-09-20T11:06:27.030Z,10.40
2022-09-20T11:07:26.818Z,5.80
2022-09-20T11:08:26.752Z,3.20
2022-09-20T11:09:26.673Z,12.20
2022-09-20T11:10:26.648Z,11.40
2022-09-20T11:11:26.558Z,8.20
2022-09-20T11:12:26.503Z,3.40
2022-09-20T11:13:26.428Z,10.50
2022-09-20T11:14:26.359Z,4.10
2022-09-20T11:15:26.312Z,6.50
2022-09-20T11:16:27.812Z,4.50
2022-09-20T11:17:26.158Z,9.90
2022-09-20T11:18:26.148Z,4.60
2022-09-20T11:19:26.048Z,2.50
2022-09-20T11:20:25.980Z,4.70
2022-09-20T11:21:25.943Z,6.10
2022-09-20T11:22:25.854Z,5.30
2022-09-20T11:23:26.632Z,5.80
2022-09-20T11:24:25.717Z,8.40
2022-09-20T11:25:29.452Z,9.00
2022-09-20T11:26:25.602Z,9.00
2022-09-20T11:27:25.507Z,8.20
2022-09-20T11:28:26.283Z,2.60
2022-09-20T11:29:25.389Z,5.70
2022-09-20T11:30:25.323Z,2.60
2022-09-20T11:31:25.327Z,2.90
2022-09-20T11:32:25.224Z,3.00
2022-09-20T11:33:25.135Z,6.40
2022-09-20T11:34:25.102Z,4.70
2022-09-20T11:35:25.015Z,2.40
2022-09-20T11:36:24.948Z,3.00
2022-09-20T11:37:24.883Z,3.30
2022-09-20T11:38:24.850Z,3.50
2022-09-20T11:39:24.780Z,3.00
2022-09-20T11:40:27.011Z,7.10
2022-09-20T11:41:24.670Z,2.20
2022-09-20T11:42:24.549Z,2.40
2022-09-20T11:43:24.487Z,3.30
2022-09-20T11:44:24.432Z,3.00
2022-09-20T11:45:28.255Z,5.70
2022-09-20T11:46:25.126Z,4.20
2022-09-20T11:47:49.841Z,4.90
2022-09-20T11:48:24.491Z,4.10
2022-09-20T11:49:24.298Z,6.80
2022-09-20T11:50:24.055Z,5.60
2022-09-20T11:51:24.001Z,3.90
2022-09-20T11:52:24.326Z,5.40
2022-09-20T11:53:24.369Z,4.70
2022-09-20T11:54:23.936Z,4.70
2022-09-20T11:55:23.817Z,2.70
2022-09-20T11:56:24.842Z,4.30
2022-09-20T11:57:23.571Z,2.10
2022-09-20T11:58:23.560Z,2.60
2022-09-20T11:59:23.469Z,3.20
2022-09-20T12:00:23.400Z,7.10
2022-09-20T12:01:27.937Z,4.80
2022-09-20T12:02:23.429Z,5.70
2022-09-20T12:03:23.364Z,3.90
2022-09-20T12:04:33.266Z,2.90
2022-09-20T12:05:23.062Z,4.50
2022-09-20T12:06:22.993Z,6.00
2022-09-20T12:07:23.051Z,2.40
2022-09-20T12:08:22.880Z,2.10
2022-09-20T12:09:22.806Z,6.30
2022-09-20T12:10:22.772Z,2.40
2022-09-20T12:11:22.682Z,6.70
2022-09-20T12:12:22.602Z,3.50
2022-09-20T12:13:22.586Z,4.30
2022-09-20T12:14:24.617Z,3.60
2022-09-20T12:15:23.868Z,4.50
2022-09-20T12:16:22.424Z,2.40
2022-09-20T12:17:22.418Z,4.20
2022-09-20T12:18:22.264Z,2.80
2022-09-20T12:19:22.148Z,4.80
2022-09-20T12:20:22.082Z,4.20
2022-09-20T12:21:24.113Z,2.20
2022-09-20T12:22:22.760Z,6.10
2022-09-20T12:23:21.899Z,1.70
2022-09-20T12:24:21.856Z,4.20
2022-09-20T12:25:21.783Z,5.80
2022-09-20T12:26:24.262Z,4.40
2022-09-20T12:27:21.752Z,6.00
2022-09-20T12:28:22.380Z,1.90
2022-09-20T12:29:21.548Z,2.10
2022-09-20T12:30:22.913Z,6.50
2022-09-20T12:31:23.836Z,6.00
2022-09-20T12:32:21.450Z,2.80
2022-09-20T12:33:21.259Z,5.70
2022-09-20T12:34:22.737Z,6.20
2022-09-20T12:35:21.137Z,4.80
2022-09-20T12:36:21.065Z,3.50
2022-09-20T12:37:21.004Z,1.90
2022-09-20T12:38:20.976Z,9.30
2022-09-20T12:39:24.200Z,2.10
2022-09-20T12:40:20.848Z,7.40
2022-09-20T12:41:27.878Z,6.40
2022-09-20T12:42:20.677Z,4.10
2022-09-20T12:43:20.620Z,5.40
2022-09-20T12:44:20.535Z,4.50
2022-09-20T12:45:20.469Z,1.40
2022-09-20T12:46:21.218Z,2.60
2022-09-20T12:47:20.341Z,2.50
2022-09-20T12:48:20.433Z,3.60
2022-09-20T12:49:20.226Z,1.40
2022-09-20T12:50:20.155Z,3.70
2022-09-20T12:51:20.103Z,5.90
2022-09-20T12:52:21.579Z,11.40
2022-09-20T12:53:19.960Z,3.10
2022-09-20T12:54:19.913Z,1.70
2022-09-20T12:55:19.829Z,5.40
2022-09-20T12:56:19.765Z,2.30
2022-09-20T12:57:19.709Z,1.80
2022-09-20T12:58:19.670Z,2.90
2022-09-20T12:59:19.600Z,2.10